Main page
METAR-TAF:

METAR-TAF

Airports :

Stevens Point Municipal Airport

Stevens Point, Wisconsin, United States

latitude: 44-32-42N, longitude: 089-31-49W, elevation: 1109 ft

Current weather observation

The report was made 24 minutes ago, at 00:15 UTC
Wind 5 mph from the West/Southwest
Temperature 54°F
Humidity 28%
Pressure 30.23 in. Hg
Visibility: 10 miles
Clear sky

METAR: KSTE 250015Z AUTO 25004KT 10SM CLR 12/M06 A3023 RMK AO2 T01161060

Time: 19:39 (00:39 UTC)


TAF: missing

Weather observations and forecasts of more than 4000 airports (METAR and TAF reports).

The available stations are represented by yellow and red dots on the map.

Hover mouse over dot to see the name of the station.

Then click to see weather observations and forecasts.

To change the map : click on the green buttons with a black cross to zoom in, on the green button with a dash to zoom out, or on the green arrows for adjacent maps.


METAR-TAF: